createdAt,value
2022-09-23T00:00:09.841Z,1.96
2022-09-23T00:02:36.867Z,1.95
2022-09-23T00:05:03.596Z,1.81
2022-09-23T00:07:30.705Z,1.76
2022-09-23T00:09:57.325Z,1.74
2022-09-23T00:12:26.729Z,1.66
2022-09-23T00:14:53.423Z,1.66
2022-09-23T00:17:20.026Z,1.65
2022-09-23T00:19:46.674Z,1.71
2022-09-23T00:22:13.243Z,1.72
2022-09-23T00:24:39.830Z,1.78
2022-09-23T00:27:06.412Z,1.83
2022-09-23T00:29:33.193Z,1.84
2022-09-23T00:31:59.824Z,1.72
2022-09-23T00:34:26.549Z,1.61
2022-09-23T00:36:53.180Z,1.48
2022-09-23T00:39:19.842Z,1.46
2022-09-23T00:41:46.462Z,1.53
2022-09-23T00:44:42.466Z,1.63
2022-09-23T00:47:32.231Z,1.69
2022-09-23T00:50:12.534Z,1.57
2022-09-23T00:52:39.193Z,1.40
2022-09-23T00:55:08.639Z,1.35
2022-09-23T00:57:35.491Z,1.33
2022-09-23T01:00:02.473Z,1.36
2022-09-23T01:02:29.162Z,1.42
2022-09-23T01:04:55.720Z,1.33
2022-09-23T01:07:22.515Z,1.29
2022-09-23T01:09:49.301Z,1.30
2022-09-23T01:12:34.340Z,1.23
2022-09-23T01:15:18.592Z,1.19
2022-09-23T01:18:01.571Z,1.14
2022-09-23T01:20:41.539Z,1.10
2022-09-23T01:23:45.491Z,1.17
2022-09-23T01:26:44.096Z,1.10
2022-09-23T01:29:28.275Z,1.09
2022-09-23T01:32:04.007Z,0.97
2022-09-23T01:34:54.957Z,0.94
2022-09-23T01:37:26.843Z,0.99
2022-09-23T01:40:01.880Z,0.96
2022-09-23T01:42:44.453Z,0.97
2022-09-23T01:45:17.081Z,0.88
2022-09-23T01:48:03.065Z,0.89
2022-09-23T01:50:30.785Z,0.76
2022-09-23T01:53:00.447Z,0.73
2022-09-23T01:55:29.288Z,0.80
2022-09-23T01:57:59.359Z,0.78
2022-09-23T02:00:25.932Z,0.81
2022-09-23T02:02:55.001Z,0.89
2022-09-23T02:05:24.796Z,0.87
2022-09-23T02:07:59.965Z,0.68
2022-09-23T02:10:38.671Z,0.74
2022-09-23T02:13:17.938Z,0.62
2022-09-23T02:15:48.014Z,0.71
2022-09-23T02:18:26.353Z,0.69
2022-09-23T02:20:55.949Z,0.61
2022-09-23T02:23:30.523Z,0.55
2022-09-23T02:25:59.892Z,0.50
2022-09-23T02:28:34.465Z,0.49
2022-09-23T02:31:10.820Z,0.56
2022-09-23T02:33:41.749Z,0.38
2022-09-23T02:36:49.108Z,0.55
2022-09-23T02:39:15.788Z,0.53
2022-09-23T02:42:08.765Z,0.42
2022-09-23T02:44:35.369Z,0.36
2022-09-23T02:47:01.943Z,0.34
2022-09-23T02:49:29.530Z,0.29
2022-09-23T02:51:56.743Z,0.27
2022-09-23T02:54:26.128Z,0.26
2022-09-23T02:56:53.155Z,0.21
2022-09-23T02:59:20.987Z,0.23
2022-09-23T03:02:12.484Z,0.29
2022-09-23T03:04:45.152Z,0.35
2022-09-23T03:07:25.544Z,0.30
2022-09-23T03:10:13.564Z,0.16
2022-09-23T03:13:08.753Z,0.12
2022-09-23T03:15:57.042Z,0.10
2022-09-23T03:18:40.745Z,0.20
2022-09-23T03:21:19.884Z,0.15
2022-09-23T03:23:46.582Z,0.13
2022-09-23T03:26:28.826Z,0.08
2022-09-23T03:28:55.443Z,0.12
2022-09-23T03:31:22.594Z,0.05
2022-09-23T03:33:55.005Z,0.03
2022-09-23T03:36:27.345Z,0.06
2022-09-23T03:39:01.324Z,0.07
2022-09-23T03:41:37.445Z,0.12
2022-09-23T03:44:04.066Z,0.01
2022-09-23T03:46:30.641Z,-0.15
2022-09-23T03:48:59.921Z,-0.13
2022-09-23T03:51:26.693Z,-0.07
2022-09-23T03:53:53.711Z,0.06
2022-09-23T03:56:20.342Z,-0.03
2022-09-23T03:58:46.995Z,-0.08
2022-09-23T04:01:13.682Z,-0.11
2022-09-23T04:03:40.602Z,-0.14
2022-09-23T04:06:07.205Z,-0.09
2022-09-23T04:08:34.016Z,-0.18
2022-09-23T04:11:03.729Z,-0.16
2022-09-23T04:13:30.656Z,-0.22
2022-09-23T04:15:57.386Z,-0.26
2022-09-23T04:18:24.131Z,-0.27
2022-09-23T04:20:50.730Z,-0.21
2022-09-23T04:23:17.279Z,-0.26
2022-09-23T04:25:45.868Z,-0.31
2022-09-23T04:28:12.487Z,-0.34
2022-09-23T04:30:42.952Z,-0.40
2022-09-23T04:33:10.553Z,-0.26
2022-09-23T04:35:40.157Z,-0.23
2022-09-23T04:38:07.140Z,-0.25
2022-09-23T04:40:33.998Z,-0.35
2022-09-23T04:43:00.660Z,-0.34
2022-09-23T04:45:27.345Z,-0.39
2022-09-23T04:47:54.245Z,-0.45
2022-09-23T04:50:21.221Z,-0.46
2022-09-23T04:52:47.780Z,-0.36
2022-09-23T04:55:14.330Z,-0.25
2022-09-23T04:57:40.944Z,-0.27
2022-09-23T05:00:08.267Z,-0.49
2022-09-23T05:02:34.961Z,-0.45
2022-09-23T05:05:01.636Z,-0.43
2022-09-23T05:07:28.238Z,-0.48
2022-09-23T05:09:54.835Z,-0.52
2022-09-23T05:12:21.528Z,-0.51
2022-09-23T05:14:48.059Z,-0.43
2022-09-23T05:17:14.577Z,-0.39
2022-09-23T05:19:41.201Z,-0.42
2022-09-23T05:22:07.860Z,-0.27
2022-09-23T05:24:34.439Z,-0.34
2022-09-23T05:27:01.114Z,-0.25
2022-09-23T05:29:27.713Z,-0.19
2022-09-23T05:31:54.440Z,-0.21
2022-09-23T05:34:21.066Z,-0.27
2022-09-23T05:36:47.584Z,-0.25
2022-09-23T05:39:14.290Z,-0.31
2022-09-23T05:41:41.039Z,-0.30
2022-09-23T05:44:10.013Z,-0.28
2022-09-23T05:46:36.764Z,-0.19
2022-09-23T05:49:03.781Z,-0.24
2022-09-23T05:51:31.385Z,-0.23
2022-09-23T05:53:58.642Z,-0.11
2022-09-23T05:56:26.601Z,-0.08
2022-09-23T05:58:53.969Z,-0.06
2022-09-23T06:01:21.805Z,-0.10
2022-09-23T06:03:48.780Z,0.03
2022-09-23T06:06:16.062Z,0.06
2022-09-23T06:08:42.932Z,0.04
2022-09-23T06:11:09.629Z,0.12
2022-09-23T06:13:37.369Z,0.10
2022-09-23T06:16:16.534Z,0.11
2022-09-23T06:18:44.330Z,0.16
2022-09-23T06:21:16.494Z,0.24
2022-09-23T06:23:43.469Z,0.27
2022-09-23T06:26:11.369Z,0.27
2022-09-23T06:28:38.900Z,0.37
2022-09-23T06:31:13.764Z,0.36
2022-09-23T06:33:43.767Z,0.48
2022-09-23T06:36:10.848Z,0.56
2022-09-23T06:38:44.293Z,0.71
2022-09-23T06:41:11.522Z,0.83
2022-09-23T06:43:38.157Z,1.05
2022-09-23T06:46:05.409Z,1.11
2022-09-23T06:48:33.136Z,1.20
2022-09-23T06:50:59.885Z,1.35
2022-09-23T06:53:26.433Z,1.46
2022-09-23T06:56:00.090Z,1.60
2022-09-23T06:58:26.986Z,1.63
2022-09-23T07:00:53.981Z,1.66
2022-09-23T07:03:20.614Z,1.71
2022-09-23T07:05:47.236Z,1.73
2022-09-23T07:08:13.893Z,1.77
2022-09-23T07:10:40.512Z,1.94
2022-09-23T07:13:07.201Z,2.00
2022-09-23T07:15:33.787Z,2.15
2022-09-23T07:18:00.562Z,2.27
2022-09-23T07:20:27.285Z,2.47
2022-09-23T07:22:53.929Z,2.70
2022-09-23T07:25:20.566Z,3.04
2022-09-23T07:27:47.353Z,3.25
2022-09-23T07:30:24.006Z,3.65
2022-09-23T07:32:51.971Z,4.36
2022-09-23T07:35:21.725Z,5.17
2022-09-23T07:37:50.291Z,6.82
2022-09-23T07:40:16.959Z,8.36
2022-09-23T07:42:43.596Z,9.49
2022-09-23T07:45:10.269Z,10.46
2022-09-23T07:47:36.894Z,10.86
2022-09-23T07:50:03.639Z,11.10
2022-09-23T07:52:30.306Z,11.42
2022-09-23T07:54:56.945Z,12.14
2022-09-23T07:57:23.653Z,12.90
2022-09-23T07:59:50.796Z,13.37
2022-09-23T08:02:17.452Z,14.11
2022-09-23T08:04:44.113Z,14.24
2022-09-23T08:07:12.310Z,14.36
2022-09-23T08:09:40.786Z,14.63
2022-09-23T08:12:15.938Z,15.37
2022-09-23T08:14:42.807Z,15.26
2022-09-23T08:17:09.562Z,15.67
2022-09-23T08:19:37.842Z,15.97
2022-09-23T08:22:04.494Z,16.36
2022-09-23T08:24:31.954Z,16.60
2022-09-23T08:26:58.569Z,16.63
2022-09-23T08:29:26.098Z,16.56
2022-09-23T08:31:53.056Z,16.98
2022-09-23T08:34:20.341Z,16.99
2022-09-23T08:36:47.179Z,17.64
2022-09-23T08:39:17.711Z,17.94
2022-09-23T08:41:59.301Z,18.16
2022-09-23T08:44:48.901Z,18.39
2022-09-23T08:47:41.937Z,18.58
2022-09-23T08:50:11.291Z,18.63
2022-09-23T08:52:51.573Z,18.31
2022-09-23T08:55:18.449Z,18.86
2022-09-23T08:58:26.650Z,19.22
2022-09-23T09:01:22.657Z,19.62
2022-09-23T09:03:52.019Z,19.08
2022-09-23T09:06:27.880Z,19.02
2022-09-23T09:09:01.603Z,18.77
2022-09-23T09:11:34.262Z,19.43
2022-09-23T09:14:22.478Z,20.49
2022-09-23T09:17:01.636Z,20.60
2022-09-23T09:19:49.925Z,20.77
2022-09-23T09:22:38.729Z,20.60
2022-09-23T09:25:14.403Z,20.58
2022-09-23T09:27:41.166Z,20.51
2022-09-23T09:30:12.841Z,20.01
2022-09-23T09:32:42.887Z,19.74
2022-09-23T09:35:18.234Z,20.48
2022-09-23T09:37:46.827Z,20.49
2022-09-23T09:40:13.801Z,20.27
2022-09-23T09:42:41.590Z,20.17
2022-09-23T09:45:13.516Z,20.97
2022-09-23T09:47:42.256Z,21.60
2022-09-23T09:50:10.389Z,21.63
2022-09-23T09:52:43.770Z,21.67
2022-09-23T09:55:12.994Z,22.46
2022-09-23T09:58:00.755Z,22.46
2022-09-23T10:00:27.635Z,22.27
2022-09-23T10:02:57.938Z,22.48
2022-09-23T10:05:26.997Z,21.98
2022-09-23T10:07:53.851Z,21.58
2022-09-23T10:10:32.453Z,22.19
2022-09-23T10:13:00.626Z,22.43
2022-09-23T10:15:29.104Z,22.49
2022-09-23T10:17:55.765Z,22.62
2022-09-23T10:20:22.490Z,22.38
2022-09-23T10:22:49.264Z,22.09
2022-09-23T10:25:17.660Z,22.21
2022-09-23T10:27:44.244Z,22.54
2022-09-23T10:30:25.249Z,21.72
2022-09-23T10:32:52.611Z,21.65
2022-09-23T10:35:20.693Z,21.75
2022-09-23T10:37:52.934Z,21.09
2022-09-23T10:40:39.321Z,20.48
2022-09-23T10:43:19.698Z,20.14
2022-09-23T10:45:49.689Z,19.51
2022-09-23T10:48:28.285Z,18.81
2022-09-23T10:50:54.961Z,17.70
2022-09-23T10:53:34.674Z,17.66
2022-09-23T10:56:25.485Z,17.74
2022-09-23T10:58:58.079Z,18.10
2022-09-23T11:01:35.463Z,17.92
2022-09-23T11:04:44.540Z,18.00
2022-09-23T11:07:12.613Z,18.11
2022-09-23T11:10:29.090Z,17.05
2022-09-23T11:13:42.660Z,17.45
2022-09-23T11:16:15.548Z,16.93
2022-09-23T11:19:19.666Z,17.18
2022-09-23T11:21:59.436Z,16.81
2022-09-23T11:24:42.630Z,16.41
2022-09-23T11:27:27.750Z,16.51
2022-09-23T11:30:07.675Z,16.85
2022-09-23T11:32:56.708Z,16.95
2022-09-23T11:35:28.112Z,17.09
2022-09-23T11:38:00.847Z,17.14
2022-09-23T11:40:30.936Z,16.61
2022-09-23T11:43:02.866Z,16.75
2022-09-23T11:45:34.683Z,17.05
2022-09-23T11:48:23.568Z,16.96
2022-09-23T11:51:17.670Z,16.59
2022-09-23T11:53:49.869Z,16.77
2022-09-23T11:56:34.840Z,16.56
2022-09-23T11:59:11.626Z,16.85
2022-09-23T12:01:45.389Z,17.01
2022-09-23T12:04:39.731Z,17.30
2022-09-23T12:07:20.051Z,17.05
2022-09-23T12:10:02.779Z,17.16
2022-09-23T12:12:37.406Z,17.24
2022-09-23T12:15:09.861Z,17.08
2022-09-23T12:18:00.875Z,17.05
2022-09-23T12:20:48.721Z,16.54
2022-09-23T12:23:47.654Z,16.22
2022-09-23T12:26:19.507Z,16.20
2022-09-23T12:28:47.248Z,16.26
2022-09-23T12:31:17.338Z,16.25
2022-09-23T12:33:51.145Z,16.13
2022-09-23T12:36:17.706Z,16.11
2022-09-23T12:38:49.482Z,16.29
2022-09-23T12:41:36.249Z,16.32
2022-09-23T12:44:12.002Z,16.51
2022-09-23T12:46:45.287Z,16.60
2022-09-23T12:49:30.162Z,16.47
2022-09-23T12:52:11.772Z,16.59
2022-09-23T12:54:40.368Z,16.64
2022-09-23T12:57:11.018Z,16.55
2022-09-23T13:00:08.634Z,16.42
2022-09-23T13:02:43.370Z,16.34
2022-09-23T13:05:23.395Z,16.33
2022-09-23T13:07:50.114Z,16.35
2022-09-23T13:10:53.718Z,16.31
2022-09-23T13:13:24.685Z,16.34
2022-09-23T13:15:52.563Z,16.36
2022-09-23T13:18:19.015Z,16.60
2022-09-23T13:20:46.029Z,16.65
2022-09-23T13:23:25.644Z,16.53
2022-09-23T13:25:54.505Z,16.53
2022-09-23T13:28:54.520Z,16.36
2022-09-23T13:31:21.391Z,16.53
2022-09-23T13:33:53.173Z,16.47
2022-09-23T13:36:20.056Z,16.38
2022-09-23T13:38:46.687Z,16.34
2022-09-23T13:41:18.452Z,16.29
2022-09-23T13:43:57.657Z,16.25
2022-09-23T13:46:34.336Z,16.37
2022-09-23T13:49:00.889Z,16.39
2022-09-23T13:51:33.064Z,16.37
2022-09-23T13:54:00.899Z,15.99
2022-09-23T13:56:29.377Z,15.86
2022-09-23T13:59:24.121Z,15.89
2022-09-23T14:01:50.815Z,16.02
2022-09-23T14:04:26.985Z,16.04
2022-09-23T14:06:53.805Z,16.06
2022-09-23T14:09:21.312Z,16.04
2022-09-23T14:11:48.893Z,16.10
2022-09-23T14:14:15.585Z,15.95
2022-09-23T14:16:42.299Z,15.90
2022-09-23T14:19:17.240Z,15.85
2022-09-23T14:21:43.875Z,15.73
2022-09-23T14:24:10.476Z,15.67
2022-09-23T14:26:37.251Z,15.69
2022-09-23T14:29:03.898Z,15.70
2022-09-23T14:31:30.691Z,15.66
2022-09-23T14:33:57.372Z,15.69
2022-09-23T14:36:24.034Z,15.75
2022-09-23T14:38:50.722Z,15.70
2022-09-23T14:41:20.691Z,15.64
2022-09-23T14:44:07.634Z,15.52
2022-09-23T14:46:35.552Z,15.40
2022-09-23T14:49:11.255Z,15.36
2022-09-23T14:51:53.432Z,15.23
2022-09-23T14:54:28.913Z,15.12
2022-09-23T14:56:56.007Z,15.01
2022-09-23T14:59:33.860Z,14.98
2022-09-23T15:02:00.524Z,14.96
2022-09-23T15:04:29.218Z,14.99
2022-09-23T15:07:16.077Z,14.85
2022-09-23T15:09:42.831Z,14.79
2022-09-23T15:12:14.694Z,14.85
2022-09-23T15:14:43.505Z,14.96
2022-09-23T15:17:35.162Z,15.09
2022-09-23T15:20:17.596Z,15.03
2022-09-23T15:22:45.645Z,15.11
2022-09-23T15:25:32.011Z,15.06
2022-09-23T15:28:01.436Z,15.13
2022-09-23T15:30:28.419Z,15.15
2022-09-23T15:32:55.086Z,15.16
2022-09-23T15:35:23.437Z,15.29
2022-09-23T15:37:50.143Z,15.24
2022-09-23T15:40:27.547Z,15.20
2022-09-23T15:42:58.329Z,15.11
2022-09-23T15:45:38.907Z,15.04
2022-09-23T15:48:07.268Z,14.91
2022-09-23T15:50:34.940Z,14.84
2022-09-23T15:53:01.606Z,14.69
2022-09-23T15:55:28.318Z,14.60
2022-09-23T15:57:54.941Z,14.55
2022-09-23T16:00:21.536Z,14.23
2022-09-23T16:02:48.910Z,14.00
2022-09-23T16:05:28.609Z,13.81
2022-09-23T16:07:55.524Z,13.56
2022-09-23T16:10:23.085Z,13.39
2022-09-23T16:12:49.797Z,13.34
2022-09-23T16:15:18.115Z,13.23
2022-09-23T16:17:44.764Z,13.05
2022-09-23T16:20:12.406Z,12.87
2022-09-23T16:22:39.019Z,12.74
2022-09-23T16:25:06.237Z,12.48
2022-09-23T16:27:33.136Z,12.43
2022-09-23T16:29:59.859Z,12.27
2022-09-23T16:32:26.595Z,12.10
2022-09-23T16:34:53.222Z,11.88
2022-09-23T16:37:19.799Z,11.71
2022-09-23T16:39:48.110Z,11.64
2022-09-23T16:42:14.763Z,11.57
2022-09-23T16:44:41.434Z,11.37
2022-09-23T16:47:08.194Z,11.16
2022-09-23T16:49:35.103Z,10.97
2022-09-23T16:52:01.827Z,10.87
2022-09-23T16:54:29.058Z,10.81
2022-09-23T16:56:55.703Z,10.75
2022-09-23T16:59:22.328Z,10.58
2022-09-23T17:01:49.037Z,10.42
2022-09-23T17:04:16.462Z,10.27
2022-09-23T17:06:46.050Z,10.11
2022-09-23T17:09:12.550Z,9.97
2022-09-23T17:11:40.003Z,9.86
2022-09-23T17:14:06.567Z,9.77
2022-09-23T17:16:33.683Z,9.64
2022-09-23T17:19:01.206Z,9.57
2022-09-23T17:21:27.943Z,9.43
2022-09-23T17:23:54.783Z,9.29
2022-09-23T17:26:21.977Z,9.20
2022-09-23T17:28:49.424Z,9.15
2022-09-23T17:31:16.097Z,9.05
2022-09-23T17:33:42.804Z,8.98
2022-09-23T17:36:10.696Z,8.91
2022-09-23T17:38:37.350Z,8.80
2022-09-23T17:41:03.953Z,8.87
2022-09-23T17:43:30.610Z,8.71
2022-09-23T17:46:03.355Z,8.53
2022-09-23T17:48:30.753Z,8.42
2022-09-23T17:50:57.736Z,8.29
2022-09-23T17:53:24.376Z,8.23
2022-09-23T17:55:55.565Z,8.10
2022-09-23T17:58:26.921Z,7.85
2022-09-23T18:00:54.547Z,7.83
2022-09-23T18:03:21.378Z,7.89
2022-09-23T18:05:47.854Z,7.91
2022-09-23T18:08:14.399Z,7.80
2022-09-23T18:10:41.010Z,7.74
2022-09-23T18:13:07.489Z,7.68
2022-09-23T18:15:37.832Z,7.73
2022-09-23T18:18:04.994Z,7.72
2022-09-23T18:20:31.666Z,7.50
2022-09-23T18:22:58.702Z,7.39
2022-09-23T18:25:38.583Z,7.40
2022-09-23T18:28:05.914Z,7.26
2022-09-23T18:30:32.420Z,7.17
2022-09-23T18:32:59.408Z,7.22
2022-09-23T18:35:26.182Z,7.23
2022-09-23T18:37:53.054Z,7.15
2022-09-23T18:40:19.641Z,7.07
2022-09-23T18:42:46.200Z,7.01
2022-09-23T18:45:12.787Z,6.89
2022-09-23T18:47:42.958Z,6.95
2022-09-23T18:50:12.499Z,6.97
2022-09-23T18:52:39.019Z,6.89
2022-09-23T18:55:05.770Z,6.80
2022-09-23T18:57:32.409Z,6.72
2022-09-23T18:59:59.293Z,6.64
2022-09-23T19:02:26.827Z,6.64
2022-09-23T19:04:53.475Z,6.55
2022-09-23T19:07:20.280Z,6.58
2022-09-23T19:09:46.800Z,6.58
2022-09-23T19:12:13.379Z,6.41
2022-09-23T19:14:39.896Z,6.45
2022-09-23T19:17:06.470Z,6.46
2022-09-23T19:19:33.140Z,6.44
2022-09-23T19:21:59.689Z,6.44
2022-09-23T19:24:26.226Z,6.51
2022-09-23T19:26:52.766Z,6.56
2022-09-23T19:29:19.439Z,6.52
2022-09-23T19:31:46.238Z,6.40
2022-09-23T19:34:14.396Z,6.19
2022-09-23T19:36:42.526Z,6.19
2022-09-23T19:39:19.264Z,6.18
2022-09-23T19:41:46.104Z,6.07
2022-09-23T19:44:12.818Z,6.02
2022-09-23T19:46:40.819Z,5.97
2022-09-23T19:49:07.507Z,6.07
2022-09-23T19:51:35.710Z,6.03
2022-09-23T19:54:03.321Z,6.00
2022-09-23T19:56:31.116Z,5.91
2022-09-23T19:58:58.420Z,5.89
2022-09-23T20:01:25.903Z,5.94
2022-09-23T20:03:52.682Z,5.96
2022-09-23T20:06:19.790Z,5.99
2022-09-23T20:08:46.692Z,5.82
2022-09-23T20:11:14.024Z,5.83
2022-09-23T20:13:41.124Z,5.83
2022-09-23T20:16:08.122Z,5.81
2022-09-23T20:18:36.526Z,5.83
2022-09-23T20:21:04.119Z,5.79
2022-09-23T20:23:30.769Z,5.76
2022-09-23T20:25:58.140Z,5.75
2022-09-23T20:28:24.758Z,5.64
2022-09-23T20:30:51.519Z,5.67
2022-09-23T20:33:18.121Z,5.71
2022-09-23T20:35:44.711Z,5.72
2022-09-23T20:38:11.354Z,5.67
2022-09-23T20:40:38.023Z,5.64
2022-09-23T20:43:04.975Z,5.69
2022-09-23T20:45:31.637Z,5.73
2022-09-23T20:47:58.270Z,5.73
2022-09-23T20:50:24.913Z,5.66
2022-09-23T20:52:52.083Z,5.60
2022-09-23T20:55:20.834Z,5.58
2022-09-23T20:57:47.924Z,5.55
2022-09-23T21:00:14.993Z,5.66
2022-09-23T21:02:43.354Z,5.57
2022-09-23T21:05:09.922Z,5.54
2022-09-23T21:07:36.728Z,5.63
2022-09-23T21:10:03.567Z,5.49
2022-09-23T21:12:30.204Z,5.46
2022-09-23T21:14:56.995Z,5.47
2022-09-23T21:17:23.691Z,5.60
2022-09-23T21:19:50.498Z,5.36
2022-09-23T21:22:17.241Z,5.36
2022-09-23T21:25:25.607Z,5.25
2022-09-23T21:27:30.397Z,5.22
2022-09-23T21:29:57.318Z,5.22
2022-09-23T21:32:23.924Z,5.29
2022-09-23T21:34:50.483Z,5.24
2022-09-23T21:37:17.005Z,5.20
2022-09-23T21:39:43.903Z,5.24
2022-09-23T21:42:10.744Z,5.24
2022-09-23T21:44:37.540Z,5.36
2022-09-23T21:47:04.141Z,5.37
2022-09-23T21:49:30.749Z,5.34
2022-09-23T21:51:57.382Z,5.33
2022-09-23T21:54:24.503Z,5.31
2022-09-23T21:56:51.122Z,5.20
2022-09-23T21:59:17.804Z,5.19
2022-09-23T22:01:44.964Z,5.27
2022-09-23T22:04:15.935Z,5.26
2022-09-23T22:06:42.690Z,5.31
2022-09-23T22:09:12.017Z,5.36
2022-09-23T22:11:38.689Z,5.33
2022-09-23T22:14:06.491Z,5.31
2022-09-23T22:16:33.383Z,5.26
2022-09-23T22:19:00.112Z,5.33
2022-09-23T22:21:29.982Z,5.42
2022-09-23T22:23:57.975Z,5.31
2022-09-23T22:26:25.469Z,5.31
2022-09-23T22:28:52.393Z,5.36
2022-09-23T22:31:19.199Z,5.26
2022-09-23T22:33:45.784Z,5.27
2022-09-23T22:36:12.398Z,5.38
2022-09-23T22:38:38.923Z,5.36
2022-09-23T22:41:05.754Z,5.36
2022-09-23T22:43:32.846Z,5.33
2022-09-23T22:45:59.500Z,5.33
2022-09-23T22:48:26.203Z,5.39
2022-09-23T22:50:52.860Z,5.20
2022-09-23T22:53:19.535Z,5.22
2022-09-23T22:55:46.263Z,5.21
2022-09-23T22:58:31.222Z,5.19
2022-09-23T23:00:59.327Z,5.12
2022-09-23T23:03:25.995Z,5.25
2022-09-23T23:05:59.613Z,5.21
2022-09-23T23:08:26.186Z,5.30
2022-09-23T23:10:52.860Z,5.34
2022-09-23T23:13:19.988Z,5.42
2022-09-23T23:15:46.669Z,5.49
2022-09-23T23:18:13.315Z,5.46
2022-09-23T23:20:40.246Z,5.44
2022-09-23T23:23:06.746Z,5.50
2022-09-23T23:25:33.300Z,5.56
2022-09-23T23:27:59.947Z,5.49
2022-09-23T23:30:27.415Z,5.55
2022-09-23T23:32:53.953Z,5.51
2022-09-23T23:35:20.582Z,5.52
2022-09-23T23:37:47.199Z,5.46
2022-09-23T23:40:14.039Z,5.53
2022-09-23T23:42:40.679Z,5.69
2022-09-23T23:45:07.911Z,5.62
2022-09-23T23:47:34.571Z,5.67
2022-09-23T23:50:01.156Z,5.71
2022-09-23T23:52:27.733Z,5.72
2022-09-23T23:54:54.351Z,5.63
2022-09-23T23:57:20.942Z,5.61
2022-09-23T23:59:47.600Z,5.64
